createdAt,value
2023-04-05T00:00:57.083Z,-2.50
2023-04-05T00:05:00.785Z,-2.40
2023-04-05T00:09:07.177Z,-2.50
2023-04-05T00:13:10.704Z,-2.60
2023-04-05T00:17:14.436Z,-2.70
2023-04-05T00:21:17.939Z,-2.70
2023-04-05T00:25:23.598Z,-2.60
2023-04-05T00:29:27.188Z,-2.70
2023-04-05T00:33:31.337Z,-2.60
2023-04-05T00:37:34.731Z,-2.70
2023-04-05T00:41:40.500Z,-2.70
2023-04-05T00:45:44.291Z,-2.60
2023-04-05T00:49:48.184Z,-2.80
2023-04-05T00:53:53.405Z,-2.90
2023-04-05T00:57:58.099Z,-2.80
2023-04-05T01:02:05.324Z,-2.90
2023-04-05T01:06:19.802Z,-3.10
2023-04-05T01:10:27.623Z,-3.00
2023-04-05T01:14:34.067Z,-3.00
2023-04-05T01:18:38.443Z,-3.10
2023-04-05T01:23:15.851Z,-3.10
2023-04-05T01:27:23.912Z,-3.10
2023-04-05T01:31:38.555Z,-3.30
2023-04-05T01:35:51.019Z,-3.20
2023-04-05T01:39:54.557Z,-3.30
2023-04-05T01:43:58.237Z,-3.20
2023-04-05T01:48:03.124Z,-3.40
2023-04-05T01:52:06.713Z,-3.30
2023-04-05T01:56:10.026Z,-3.80
2023-04-05T02:00:14.620Z,-3.30
2023-04-05T02:04:19.259Z,-3.40
2023-04-05T02:08:22.897Z,-3.50
2023-04-05T02:12:26.313Z,-3.50
2023-04-05T02:16:33.449Z,-3.70
2023-04-05T02:20:39.066Z,-3.60
2023-04-05T02:24:42.961Z,-3.90
2023-04-05T02:28:46.353Z,-3.80
2023-04-05T02:32:49.746Z,-3.90
2023-04-05T02:36:54.893Z,-3.70
2023-04-05T02:40:58.208Z,-3.90
2023-04-05T02:45:01.613Z,-4.10
2023-04-05T02:49:05.136Z,-4.10
2023-04-05T02:53:09.840Z,-4.00
2023-04-05T02:57:13.100Z,-4.10
2023-04-05T03:01:17.931Z,-4.20
2023-04-05T03:05:22.743Z,-3.90
2023-04-05T03:09:33.676Z,-4.30
2023-04-05T03:13:37.275Z,-4.30
2023-04-05T03:17:44.488Z,-4.20
2023-04-05T03:21:47.837Z,-4.50
2023-04-05T03:25:55.744Z,-4.40
2023-04-05T03:29:58.978Z,-4.50
2023-04-05T03:34:02.195Z,-4.50
2023-04-05T03:38:05.942Z,-4.50
2023-04-05T03:42:10.614Z,-4.40
2023-04-05T03:46:14.267Z,-4.50
2023-04-05T03:50:17.592Z,-4.60
2023-04-05T03:54:22.074Z,-4.60
2023-04-05T03:58:30.983Z,-4.60
2023-04-05T04:02:34.308Z,-4.70
2023-04-05T04:06:38.545Z,-4.70
2023-04-05T04:10:41.899Z,-4.80
2023-04-05T04:14:46.595Z,-4.80
2023-04-05T04:18:49.785Z,-4.70
2023-04-05T04:22:54.182Z,-4.70
2023-04-05T04:26:57.533Z,-4.80
2023-04-05T04:31:05.087Z,-4.80
2023-04-05T04:35:09.658Z,-4.70
2023-04-05T04:39:13.953Z,-4.80
2023-04-05T04:43:18.289Z,-4.80
2023-04-05T04:47:23.104Z,-5.20
2023-04-05T04:51:26.459Z,-4.90
2023-04-05T04:55:29.794Z,-4.90
2023-04-05T04:59:34.408Z,-4.80
2023-04-05T05:03:39.348Z,-4.60
2023-04-05T05:07:43.651Z,-4.60
2023-04-05T05:11:47.125Z,-4.70
2023-04-05T05:15:51.991Z,-4.50
2023-04-05T05:19:56.847Z,-4.40
2023-04-05T05:24:00.237Z,-4.30
2023-04-05T05:28:03.609Z,-4.20
2023-04-05T05:32:07.649Z,-4.20
2023-04-05T05:36:20.020Z,-4.10
2023-04-05T05:40:23.570Z,-3.90
2023-04-05T05:44:27.019Z,-3.80
2023-04-05T05:48:30.220Z,-3.70
2023-04-05T05:52:36.020Z,-3.60
2023-04-05T05:56:39.300Z,-3.30
2023-04-05T06:00:42.995Z,-3.30
2023-04-05T06:04:46.274Z,-3.10
2023-04-05T06:08:51.512Z,-3.00
2023-04-05T06:12:55.049Z,-3.20
2023-04-05T06:16:58.354Z,-2.60
2023-04-05T06:21:01.619Z,-2.50
2023-04-05T06:25:07.272Z,-2.20
2023-04-05T06:29:10.573Z,-2.10
2023-04-05T06:33:14.147Z,-1.70
2023-04-05T06:37:17.538Z,-1.70
2023-04-05T06:41:22.584Z,-1.20
2023-04-05T06:45:26.467Z,-1.10
2023-04-05T06:49:29.776Z,-0.70
2023-04-05T06:53:33.278Z,-1.10
2023-04-05T06:57:37.949Z,-0.70
2023-04-05T07:01:41.278Z,-0.20
2023-04-05T07:05:53.274Z,0.10
2023-04-05T07:09:56.690Z,0.10
2023-04-05T07:14:01.610Z,0.10
2023-04-05T07:18:05.213Z,0.10
2023-04-05T07:22:08.796Z,0.20
2023-04-05T07:26:12.658Z,0.30
2023-04-05T07:30:17.490Z,0.80
2023-04-05T07:34:20.683Z,1.00
2023-04-05T07:38:24.391Z,1.60
2023-04-05T07:42:28.248Z,2.90
2023-04-05T07:46:33.034Z,2.80
2023-04-05T07:50:39.872Z,2.30
2023-04-05T07:54:44.104Z,2.30
2023-04-05T07:58:48.130Z,2.80
2023-04-05T08:02:53.315Z,4.50
2023-04-05T08:06:56.595Z,6.30
2023-04-05T08:11:00.152Z,7.60
2023-04-05T08:15:03.473Z,8.40
2023-04-05T08:19:08.157Z,9.40
2023-04-05T08:23:11.359Z,11.00
2023-04-05T08:27:14.648Z,10.50
2023-04-05T08:31:17.874Z,10.70
2023-04-05T08:35:22.504Z,12.20
2023-04-05T08:39:27.053Z,13.10
2023-04-05T08:43:41.061Z,11.70
2023-04-05T08:47:44.765Z,10.70
2023-04-05T08:51:50.336Z,12.00
2023-04-05T08:55:57.181Z,12.00
2023-04-05T09:00:02.576Z,12.50
2023-04-05T09:04:08.295Z,12.60
2023-04-05T09:08:14.038Z,14.20
2023-04-05T09:12:17.386Z,13.60
2023-04-05T09:16:21.579Z,13.70
2023-04-05T09:20:25.051Z,12.60
2023-04-05T09:24:41.651Z,13.30
2023-04-05T09:28:44.926Z,13.90
2023-04-05T09:32:48.977Z,14.20
2023-04-05T09:36:52.856Z,14.20
2023-04-05T09:40:57.579Z,13.60
2023-04-05T09:45:03.154Z,14.20
2023-04-05T09:49:07.975Z,15.00
2023-04-05T09:53:16.322Z,13.30
2023-04-05T09:57:21.290Z,13.40
2023-04-05T10:01:28.957Z,13.60
2023-04-05T10:05:32.830Z,15.20
2023-04-05T10:09:36.719Z,14.30
2023-04-05T10:13:42.073Z,13.80
2023-04-05T10:17:53.539Z,14.50
2023-04-05T10:21:59.126Z,14.30
2023-04-05T10:26:09.388Z,13.30
2023-04-05T10:30:14.858Z,13.40
2023-04-05T10:34:27.358Z,14.30
2023-04-05T10:38:33.107Z,14.90
2023-04-05T10:42:43.279Z,14.90
2023-04-05T10:46:48.245Z,14.70
2023-04-05T10:50:52.022Z,15.70
2023-04-05T10:54:59.163Z,17.00
2023-04-05T10:59:03.399Z,15.80
2023-04-05T11:03:08.014Z,16.40
2023-04-05T11:07:16.041Z,15.70
2023-04-05T11:11:20.394Z,15.60
2023-04-05T11:15:34.786Z,17.20
2023-04-05T11:19:53.290Z,17.70
2023-04-05T11:24:07.270Z,18.30
2023-04-05T11:28:11.753Z,17.60
2023-04-05T11:32:15.687Z,17.60
2023-04-05T11:36:33.895Z,18.50
2023-04-05T11:40:40.548Z,17.70
2023-04-05T11:44:46.544Z,18.90
2023-04-05T11:48:51.493Z,18.60
2023-04-05T11:53:12.593Z,17.00
2023-04-05T11:57:19.730Z,16.60
2023-04-05T12:01:23.659Z,16.50
2023-04-05T12:05:26.992Z,18.70
2023-04-05T12:09:31.827Z,20.20
2023-04-05T12:13:35.652Z,19.80
2023-04-05T12:17:44.576Z,18.50
2023-04-05T12:21:48.433Z,17.60
2023-04-05T12:25:54.535Z,17.40
2023-04-05T12:30:11.389Z,17.60
2023-04-05T12:34:16.148Z,17.40
2023-04-05T12:38:19.522Z,19.20
2023-04-05T12:42:24.204Z,19.90
2023-04-05T12:46:41.046Z,20.20
2023-04-05T12:50:46.062Z,19.80
2023-04-05T12:54:55.979Z,19.40
2023-04-05T12:59:00.879Z,20.50
2023-04-05T13:03:04.181Z,18.50
2023-04-05T13:07:07.417Z,19.30
2023-04-05T13:11:10.703Z,18.80
2023-04-05T13:15:17.139Z,18.40
2023-04-05T13:19:20.850Z,19.20
2023-04-05T13:23:24.667Z,18.90
2023-04-05T13:27:27.831Z,17.40
2023-04-05T13:31:33.948Z,18.00
2023-04-05T13:35:37.227Z,18.90
2023-04-05T13:39:40.787Z,20.90
2023-04-05T13:43:45.423Z,19.70
2023-04-05T13:47:51.485Z,19.80
2023-04-05T13:51:55.295Z,20.60
2023-04-05T13:55:58.576Z,21.00
2023-04-05T14:00:02.084Z,19.40
2023-04-05T14:04:06.915Z,19.10
2023-04-05T14:08:10.261Z,19.00
2023-04-05T14:12:14.394Z,18.60
2023-04-05T14:16:17.704Z,18.20
2023-04-05T14:20:22.944Z,19.20
2023-04-05T14:24:26.386Z,19.60
2023-04-05T14:28:35.808Z,18.70
2023-04-05T14:32:39.151Z,19.90
2023-04-05T14:36:43.840Z,18.90
2023-04-05T14:40:47.065Z,19.00
2023-04-05T14:44:50.529Z,19.00
2023-04-05T14:48:53.943Z,19.80
2023-04-05T14:52:58.909Z,19.80
2023-04-05T14:57:02.186Z,17.90
2023-04-05T15:01:06.084Z,16.20
2023-04-05T15:05:10.091Z,14.20
2023-04-05T15:09:14.729Z,14.10
2023-04-05T15:13:19.829Z,14.20
2023-04-05T15:17:23.285Z,12.30
2023-04-05T15:21:26.560Z,11.30
2023-04-05T15:25:31.500Z,10.60
2023-04-05T15:29:35.069Z,10.60
2023-04-05T15:33:38.437Z,11.30
2023-04-05T15:37:42.447Z,12.80
2023-04-05T15:41:47.227Z,12.10
2023-04-05T15:45:50.572Z,10.70
2023-04-05T15:49:53.868Z,9.50
2023-04-05T15:53:58.570Z,9.00
2023-04-05T15:58:04.466Z,8.50
2023-04-05T16:02:08.061Z,8.40
2023-04-05T16:06:11.664Z,8.60
2023-04-05T16:10:15.037Z,8.40
2023-04-05T16:14:20.184Z,8.00
2023-04-05T16:18:24.458Z,7.90
2023-04-05T16:22:28.069Z,7.80
2023-04-05T16:26:31.579Z,7.80
2023-04-05T16:30:36.535Z,7.70
2023-04-05T16:34:39.729Z,7.60
2023-04-05T16:38:43.845Z,7.40
2023-04-05T16:42:48.310Z,7.20
2023-04-05T16:46:53.988Z,7.10
2023-04-05T16:50:57.231Z,7.00
2023-04-05T16:55:00.666Z,6.90
2023-04-05T16:59:06.720Z,6.80
2023-04-05T17:03:13.345Z,6.60
2023-04-05T17:07:16.894Z,6.50
2023-04-05T17:11:20.196Z,6.40
2023-04-05T17:15:23.937Z,6.20
2023-04-05T17:19:29.666Z,6.10
2023-04-05T17:23:33.322Z,6.10
2023-04-05T17:27:36.776Z,5.90
2023-04-05T17:31:40.207Z,5.70
2023-04-05T17:35:46.751Z,5.50
2023-04-05T17:39:50.091Z,5.30
2023-04-05T17:43:54.508Z,5.20
2023-04-05T17:47:57.843Z,5.10
2023-04-05T17:52:06.011Z,4.90
2023-04-05T17:56:09.466Z,4.70
2023-04-05T18:00:14.233Z,4.50
2023-04-05T18:04:17.997Z,4.30
2023-04-05T18:08:23.363Z,4.00
2023-04-05T18:12:26.619Z,3.80
2023-04-05T18:16:32.488Z,3.60
2023-04-05T18:20:36.038Z,3.40
2023-04-05T18:24:40.751Z,3.30
2023-04-05T18:28:44.052Z,3.30
2023-04-05T18:32:47.555Z,3.20
2023-04-05T18:36:51.337Z,3.10
2023-04-05T18:41:02.519Z,3.10
2023-04-05T18:45:07.803Z,3.00
2023-04-05T18:49:11.259Z,2.80
2023-04-05T18:53:14.566Z,2.70
2023-04-05T18:57:19.589Z,2.50
2023-04-05T19:01:23.566Z,2.50
2023-04-05T19:05:27.073Z,2.40
2023-04-05T19:09:31.477Z,2.30
2023-04-05T19:13:36.624Z,2.10
2023-04-05T19:17:40.484Z,2.00
2023-04-05T19:21:44.600Z,1.90
2023-04-05T19:25:49.001Z,1.80
2023-04-05T19:29:54.061Z,1.70
2023-04-05T19:33:57.442Z,1.60
2023-04-05T19:38:01.492Z,1.60
2023-04-05T19:42:07.197Z,1.50
2023-04-05T19:46:12.302Z,1.60
2023-04-05T19:51:01.376Z,1.60
2023-04-05T19:55:27.143Z,1.60
2023-04-05T19:59:31.841Z,1.50
2023-04-05T20:03:37.996Z,1.60
2023-04-05T20:07:41.341Z,1.50
2023-04-05T20:11:48.037Z,1.50
2023-04-05T20:15:51.421Z,1.50
2023-04-05T20:20:01.107Z,1.40
2023-04-05T20:24:08.630Z,1.30
2023-04-05T20:28:29.032Z,1.20
2023-04-05T20:32:32.336Z,1.20
2023-04-05T20:36:39.746Z,1.00
2023-04-05T20:40:43.049Z,0.90
2023-04-05T20:44:47.986Z,0.80
2023-04-05T20:48:53.483Z,0.70
2023-04-05T20:52:59.074Z,0.60
2023-04-05T20:57:02.324Z,0.40
2023-04-05T21:01:06.223Z,0.30
2023-04-05T21:05:10.225Z,0.10
2023-04-05T21:09:15.590Z,-0.20
2023-04-05T21:13:19.043Z,-0.10
2023-04-05T21:17:22.393Z,-0.20
2023-04-05T21:21:26.033Z,-0.30
2023-04-05T21:25:31.125Z,-0.30
2023-04-05T21:29:34.346Z,-0.40
2023-04-05T21:33:37.695Z,-0.60
2023-04-05T21:37:41.161Z,-0.50
2023-04-05T21:41:45.860Z,-0.60
2023-04-05T21:45:49.056Z,-0.80
2023-04-05T21:49:52.970Z,-0.90
2023-04-05T21:53:56.244Z,-0.70
2023-04-05T21:58:01.079Z,-0.90
2023-04-05T22:02:04.448Z,-0.70
2023-04-05T22:06:09.010Z,-0.80
2023-04-05T22:10:12.622Z,-1.10
2023-04-05T22:14:17.549Z,-1.10
2023-04-05T22:18:20.884Z,-1.00
2023-04-05T22:22:25.256Z,-1.10
2023-04-05T22:26:29.398Z,-1.20
2023-04-05T22:30:43.747Z,-1.10
2023-04-05T22:34:48.043Z,-1.10
2023-04-05T22:38:54.081Z,-1.30
2023-04-05T22:42:59.765Z,-1.40
2023-04-05T22:47:04.399Z,-1.30
2023-04-05T22:51:08.448Z,-1.40
2023-04-05T22:55:11.884Z,-1.40
2023-04-05T22:59:15.284Z,-1.60
2023-04-05T23:03:19.962Z,-1.50
2023-04-05T23:07:23.210Z,-1.50
2023-04-05T23:11:26.405Z,-1.70
2023-04-05T23:15:29.779Z,-1.70
2023-04-05T23:19:34.728Z,-1.60
2023-04-05T23:23:37.989Z,-1.70
2023-04-05T23:27:41.221Z,-1.70
2023-04-05T23:31:44.545Z,-1.70
2023-04-05T23:35:49.265Z,-1.80
2023-04-05T23:39:52.614Z,-1.70
2023-04-05T23:43:56.278Z,-1.90
2023-04-05T23:47:59.550Z,-2.00
2023-04-05T23:52:04.345Z,-1.90
2023-04-05T23:56:09.016Z,-1.90
